sensor_id;sensor_type;location;lat;lon;timestamp;pressure;altitude;pressure_sealevel;temperature;humidity
71917;BME280;59793;46.506;6.674;2023-11-21T00:01:49;96892.34;;;9.76;76.51
71917;BME280;59793;46.506;6.674;2023-11-21T00:04:15;96877.06;;;9.66;76.33
71917;BME280;59793;46.506;6.674;2023-11-21T00:06:43;96873.22;;;9.63;76.09
71917;BME280;59793;46.506;6.674;2023-11-21T00:09:16;96891.84;;;9.86;76.54
71917;BME280;59793;46.506;6.674;2023-11-21T00:11:48;96791.94;;;9.42;76.49
71917;BME280;59793;46.506;6.674;2023-11-21T00:14:37;96893.69;;;10.17;75.88
71917;BME280;59793;46.506;6.674;2023-11-21T00:17:24;96867.78;;;10.19;74.44
71917;BME280;59793;46.506;6.674;2023-11-21T00:19:51;96878.75;;;10.37;75.04
71917;BME280;59793;46.506;6.674;2023-11-21T00:22:21;96884.69;;;10.34;74.40
71917;BME280;59793;46.506;6.674;2023-11-21T00:24:48;96885.03;;;10.33;75.12
71917;BME280;59793;46.506;6.674;2023-11-21T00:27:15;96876.38;;;10.32;74.44
71917;BME280;59793;46.506;6.674;2023-11-21T00:29:46;96882.72;;;10.31;73.11
71917;BME280;59793;46.506;6.674;2023-11-21T00:34:42;96837.56;;;10.13;71.08
71917;BME280;59793;46.506;6.674;2023-11-21T00:37:08;96763.69;;;9.71;71.49
71917;BME280;59793;46.506;6.674;2023-11-21T00:39:37;96809.25;;;9.91;71.45
71917;BME280;59793;46.506;6.674;2023-11-21T00:42:08;96864.31;;;10.31;71.04
71917;BME280;59793;46.506;6.674;2023-11-21T00:44:39;96847.75;;;10.31;71.06
71917;BME280;59793;46.506;6.674;2023-11-21T00:47:26;96851.13;;;10.31;70.41
71917;BME280;59793;46.506;6.674;2023-11-21T00:49:55;96851.56;;;10.33;70.52
71917;BME280;59793;46.506;6.674;2023-11-21T00:52:28;96850.75;;;10.29;70.43
71917;BME280;59793;46.506;6.674;2023-11-21T00:54:58;96843.91;;;10.28;70.78
71917;BME280;59793;46.506;6.674;2023-11-21T00:57:48;96845.88;;;10.31;70.33
71917;BME280;59793;46.506;6.674;2023-11-21T01:00:16;96838.66;;;10.28;70.31
71917;BME280;59793;46.506;6.674;2023-11-21T01:02:53;96842.31;;;10.39;70.69
71917;BME280;59793;46.506;6.674;2023-11-21T01:05:20;96845.69;;;10.40;70.38
71917;BME280;59793;46.506;6.674;2023-11-21T01:08:06;96857.16;;;10.47;71.20
71917;BME280;59793;46.506;6.674;2023-11-21T01:10:32;96843.38;;;10.38;71.26
71917;BME280;59793;46.506;6.674;2023-11-21T01:13:16;96847.13;;;10.37;70.24
71917;BME280;59793;46.506;6.674;2023-11-21T01:15:46;96868.09;;;10.49;69.68
71917;BME280;59793;46.506;6.674;2023-11-21T01:18:12;96813.00;;;10.25;70.20
71917;BME280;59793;46.506;6.674;2023-11-21T01:20:41;96854.22;;;10.52;69.96
71917;BME280;59793;46.506;6.674;2023-11-21T01:23:06;96857.66;;;10.53;70.27
71917;BME280;59793;46.506;6.674;2023-11-21T01:25:33;96859.09;;;10.50;68.95
71917;BME280;59793;46.506;6.674;2023-11-21T01:28:04;96856.47;;;10.50;68.89
71917;BME280;59793;46.506;6.674;2023-11-21T01:30:30;96813.69;;;10.22;68.38
71917;BME280;59793;46.506;6.674;2023-11-21T01:32:57;96846.25;;;10.49;67.86
71917;BME280;59793;46.506;6.674;2023-11-21T01:35:24;96839.91;;;10.50;67.61
71917;BME280;59793;46.506;6.674;2023-11-21T01:37:50;96763.47;;;9.95;67.43
71917;BME280;59793;46.506;6.674;2023-11-21T01:40:20;96830.88;;;10.51;68.25
71917;BME280;59793;46.506;6.674;2023-11-21T01:42:46;96796.97;;;10.30;67.43
71917;BME280;59793;46.506;6.674;2023-11-21T01:45:13;96826.38;;;10.51;67.07
71917;BME280;59793;46.506;6.674;2023-11-21T01:47:41;96815.75;;;10.48;65.67
71917;BME280;59793;46.506;6.674;2023-11-21T01:50:09;96813.88;;;10.48;67.29
71917;BME280;59793;46.506;6.674;2023-11-21T01:52:43;96737.22;;;9.99;67.65
71917;BME280;59793;46.506;6.674;2023-11-21T01:55:11;96818.06;;;10.49;68.87
71917;BME280;59793;46.506;6.674;2023-11-21T01:57:40;96783.63;;;10.23;68.60
71917;BME280;59793;46.506;6.674;2023-11-21T02:00:06;96802.72;;;10.36;68.23
71917;BME280;59793;46.506;6.674;2023-11-21T02:02:45;96786.44;;;10.30;69.18
71917;BME280;59793;46.506;6.674;2023-11-21T02:05:14;96819.66;;;10.54;69.26
71917;BME280;59793;46.506;6.674;2023-11-21T02:07:44;96796.19;;;10.29;69.22
71917;BME280;59793;46.506;6.674;2023-11-21T02:10:10;96787.38;;;10.22;68.83
71917;BME280;59793;46.506;6.674;2023-11-21T02:12:41;96733.81;;;9.79;69.12
71917;BME280;59793;46.506;6.674;2023-11-21T02:15:10;96813.88;;;10.29;70.13
71917;BME280;59793;46.506;6.674;2023-11-21T02:17:43;96768.41;;;9.97;70.51
71917;BME280;59793;46.506;6.674;2023-11-21T02:20:14;96807.66;;;10.21;71.54
71917;BME280;59793;46.506;6.674;2023-11-21T02:22:41;96821.34;;;10.27;72.10
71917;BME280;59793;46.506;6.674;2023-11-21T02:25:08;96774.75;;;9.96;73.01
71917;BME280;59793;46.506;6.674;2023-11-21T02:27:55;96806.72;;;10.14;74.17
71917;BME280;59793;46.506;6.674;2023-11-21T02:30:21;96810.06;;;10.11;74.65
71917;BME280;59793;46.506;6.674;2023-11-21T02:32:48;96783.41;;;9.96;75.38
71917;BME280;59793;46.506;6.674;2023-11-21T02:35:15;96804.88;;;10.14;75.77
71917;BME280;59793;46.506;6.674;2023-11-21T02:37:42;96811.59;;;9.96;76.24
71917;BME280;59793;46.506;6.674;2023-11-21T02:40:09;96790.47;;;9.92;76.37
71917;BME280;59793;46.506;6.674;2023-11-21T02:42:39;96775.03;;;9.75;76.97
71917;BME280;59793;46.506;6.674;2023-11-21T02:45:05;96806.84;;;9.86;77.63
71917;BME280;59793;46.506;6.674;2023-11-21T02:47:39;96800.06;;;9.85;77.65
71917;BME280;59793;46.506;6.674;2023-11-21T02:50:05;96769.81;;;9.59;78.24
71917;BME280;59793;46.506;6.674;2023-11-21T02:52:33;96780.13;;;9.68;77.84
71917;BME280;59793;46.506;6.674;2023-11-21T02:54:58;96797.47;;;9.69;77.28
71917;BME280;59793;46.506;6.674;2023-11-21T02:57:24;96785.91;;;9.57;77.73
71917;BME280;59793;46.506;6.674;2023-11-21T02:59:49;96766.09;;;9.44;76.96
71917;BME280;59793;46.506;6.674;2023-11-21T03:02:16;96768.03;;;9.47;77.67
71917;BME280;59793;46.506;6.674;2023-11-21T03:04:44;96768.72;;;9.44;77.39
71917;BME280;59793;46.506;6.674;2023-11-21T03:07:10;96787.09;;;9.60;77.73
71917;BME280;59793;46.506;6.674;2023-11-21T03:09:36;96783.47;;;9.65;79.01
71917;BME280;59793;46.506;6.674;2023-11-21T03:12:03;96763.28;;;9.53;78.55
71917;BME280;59793;46.506;6.674;2023-11-21T03:14:29;96711.63;;;9.13;78.78
71917;BME280;59793;46.506;6.674;2023-11-21T03:16:56;96779.97;;;9.61;78.62
71917;BME280;59793;46.506;6.674;2023-11-21T03:19:25;96703.91;;;9.04;79.57
71917;BME280;59793;46.506;6.674;2023-11-21T03:22:10;96781.19;;;9.47;79.64
71917;BME280;59793;46.506;6.674;2023-11-21T03:24:38;96724.69;;;9.09;79.52
71917;BME280;59793;46.506;6.674;2023-11-21T03:27:04;96763.59;;;9.36;80.62
71917;BME280;59793;46.506;6.674;2023-11-21T03:29:30;96764.63;;;9.31;80.64
71917;BME280;59793;46.506;6.674;2023-11-21T03:32:00;96782.94;;;9.43;80.67
71917;BME280;59793;46.506;6.674;2023-11-21T03:34:27;96763.16;;;9.18;80.68
71917;BME280;59793;46.506;6.674;2023-11-21T03:36:53;96734.53;;;9.13;80.42
71917;BME280;59793;46.506;6.674;2023-11-21T03:39:22;96782.34;;;9.34;80.48
71917;BME280;59793;46.506;6.674;2023-11-21T03:41:49;96749.63;;;9.16;79.52
71917;BME280;59793;46.506;6.674;2023-11-21T03:44:14;96752.34;;;9.19;79.71
71917;BME280;59793;46.506;6.674;2023-11-21T03:46:44;96776.44;;;9.37;80.26
71917;BME280;59793;46.506;6.674;2023-11-21T03:49:11;96774.31;;;9.27;80.19
71917;BME280;59793;46.506;6.674;2023-11-21T03:51:39;96771.59;;;9.23;80.14
71917;BME280;59793;46.506;6.674;2023-11-21T03:54:06;96785.84;;;9.38;80.07
71917;BME280;59793;46.506;6.674;2023-11-21T03:56:32;96783.38;;;9.45;79.25
71917;BME280;59793;46.506;6.674;2023-11-21T03:59:06;96784.91;;;9.46;78.35
71917;BME280;59793;46.506;6.674;2023-11-21T04:01:34;96763.69;;;9.39;78.30
71917;BME280;59793;46.506;6.674;2023-11-21T04:04:01;96793.63;;;9.50;78.30
71917;BME280;59793;46.506;6.674;2023-11-21T04:06:28;96794.34;;;9.47;78.53
71917;BME280;59793;46.506;6.674;2023-11-21T04:08:54;96777.09;;;9.34;79.57
71917;BME280;59793;46.506;6.674;2023-11-21T04:11:19;96755.06;;;9.23;79.37
71917;BME280;59793;46.506;6.674;2023-11-21T04:13:46;96795.31;;;9.43;79.38
71917;BME280;59793;46.506;6.674;2023-11-21T04:16:12;96795.50;;;9.34;80.11
71917;BME280;59793;46.506;6.674;2023-11-21T04:18:39;96780.50;;;9.19;79.81
71917;BME280;59793;46.506;6.674;2023-11-21T04:21:25;96811.69;;;9.36;80.14
71917;BME280;59793;46.506;6.674;2023-11-21T04:23:51;96805.75;;;9.39;80.27
71917;BME280;59793;46.506;6.674;2023-11-21T04:26:16;96736.63;;;8.91;79.48
71917;BME280;59793;46.506;6.674;2023-11-21T04:28:43;96784.81;;;9.27;79.38
71917;BME280;59793;46.506;6.674;2023-11-21T04:31:09;96808.06;;;9.41;79.00
71917;BME280;59793;46.506;6.674;2023-11-21T04:33:35;96814.09;;;9.41;78.80
71917;BME280;59793;46.506;6.674;2023-11-21T04:36:06;96775.22;;;9.19;76.64
71917;BME280;59793;46.506;6.674;2023-11-21T04:38:32;96810.44;;;9.46;75.20
71917;BME280;59793;46.506;6.674;2023-11-21T04:40:58;96776.00;;;9.35;74.17
71917;BME280;59793;46.506;6.674;2023-11-21T04:43:35;96803.16;;;9.55;74.14
71917;BME280;59793;46.506;6.674;2023-11-21T04:46:00;96800.84;;;9.53;74.17
71917;BME280;59793;46.506;6.674;2023-11-21T04:48:28;96789.41;;;9.46;74.70
71917;BME280;59793;46.506;6.674;2023-11-21T04:50:54;96795.50;;;9.50;74.56
71917;BME280;59793;46.506;6.674;2023-11-21T04:53:21;96803.47;;;9.53;75.51
71917;BME280;59793;46.506;6.674;2023-11-21T04:55:48;96805.88;;;9.58;75.74
71917;BME280;59793;46.506;6.674;2023-11-21T04:58:39;96803.66;;;9.61;76.23
71917;BME280;59793;46.506;6.674;2023-11-21T05:01:06;96773.53;;;9.42;75.86
71917;BME280;59793;46.506;6.674;2023-11-21T05:03:33;96793.22;;;9.48;74.15
71917;BME280;59793;46.506;6.674;2023-11-21T05:06:02;96763.03;;;9.26;73.05
71917;BME280;59793;46.506;6.674;2023-11-21T05:08:27;96712.31;;;8.94;72.81
71917;BME280;59793;46.506;6.674;2023-11-21T05:10:55;96780.31;;;9.43;73.73
71917;BME280;59793;46.506;6.674;2023-11-21T05:13:23;96775.22;;;9.50;74.64
71917;BME280;59793;46.506;6.674;2023-11-21T05:15:54;96785.22;;;9.61;74.16
71917;BME280;59793;46.506;6.674;2023-11-21T05:18:30;96802.28;;;9.67;73.11
71917;BME280;59793;46.506;6.674;2023-11-21T05:20:57;96815.22;;;9.72;73.35
71917;BME280;59793;46.506;6.674;2023-11-21T05:23:23;96815.63;;;9.74;73.26
71917;BME280;59793;46.506;6.674;2023-11-21T05:25:50;96815.53;;;9.70;72.87
71917;BME280;59793;46.506;6.674;2023-11-21T05:28:18;96796.94;;;9.63;72.61
71917;BME280;59793;46.506;6.674;2023-11-21T05:30:45;96801.34;;;9.75;72.64
71917;BME280;59793;46.506;6.674;2023-11-21T05:33:10;96724.84;;;9.17;72.89
71917;BME280;59793;46.506;6.674;2023-11-21T05:35:37;96690.84;;;8.92;72.54
71917;BME280;59793;46.506;6.674;2023-11-21T05:38:05;96680.75;;;8.78;73.06
71917;BME280;59793;46.506;6.674;2023-11-21T05:40:30;96785.06;;;9.53;74.17
71917;BME280;59793;46.506;6.674;2023-11-21T05:42:58;96791.09;;;9.54;76.39
71917;BME280;59793;46.506;6.674;2023-11-21T05:45:36;96812.38;;;9.80;77.41
71917;BME280;59793;46.506;6.674;2023-11-21T05:48:03;96810.25;;;9.70;78.41
71917;BME280;59793;46.506;6.674;2023-11-21T05:50:33;96819.19;;;9.66;79.60
71917;BME280;59793;46.506;6.674;2023-11-21T05:52:58;96812.97;;;9.42;80.38
71917;BME280;59793;46.506;6.674;2023-11-21T05:55:26;96817.03;;;9.40;79.66
71917;BME280;59793;46.506;6.674;2023-11-21T05:57:51;96794.63;;;9.14;78.68
71917;BME280;59793;46.506;6.674;2023-11-21T06:00:17;96790.19;;;9.02;78.22
71917;BME280;59793;46.506;6.674;2023-11-21T06:02:50;96797.41;;;9.05;78.38
71917;BME280;59793;46.506;6.674;2023-11-21T06:05:19;96784.94;;;9.02;78.71
71917;BME280;59793;46.506;6.674;2023-11-21T06:07:46;96840.19;;;9.34;78.11
71917;BME280;59793;46.506;6.674;2023-11-21T06:10:13;96827.13;;;9.38;77.22
71917;BME280;59793;46.506;6.674;2023-11-21T06:12:40;96806.06;;;9.22;77.24
71917;BME280;59793;46.506;6.674;2023-11-21T06:15:08;96754.91;;;8.88;77.49
71917;BME280;59793;46.506;6.674;2023-11-21T06:22:45;96704.41;;;8.50;79.80
71917;BME280;59793;46.506;6.674;2023-11-21T06:25:11;96828.41;;;9.28;80.75
71917;BME280;59793;46.506;6.674;2023-11-21T06:27:43;96826.59;;;9.16;81.51
71917;BME280;59793;46.506;6.674;2023-11-21T06:30:13;96824.47;;;9.22;82.17
71917;BME280;59793;46.506;6.674;2023-11-21T06:32:41;96765.34;;;8.84;82.73
71917;BME280;59793;46.506;6.674;2023-11-21T06:35:07;96834.84;;;9.30;83.23
71917;BME280;59793;46.506;6.674;2023-11-21T06:37:44;96833.66;;;9.28;83.42
71917;BME280;59793;46.506;6.674;2023-11-21T06:40:20;96831.47;;;9.30;82.85
71917;BME280;59793;46.506;6.674;2023-11-21T06:42:45;96836.53;;;9.23;82.91
71917;BME280;59793;46.506;6.674;2023-11-21T06:45:12;96741.47;;;8.61;82.91
71917;BME280;59793;46.506;6.674;2023-11-21T06:47:38;96799.91;;;8.86;83.84
71917;BME280;59793;46.506;6.674;2023-11-21T06:50:05;96838.09;;;9.12;84.35
71917;BME280;59793;46.506;6.674;2023-11-21T06:52:33;96798.19;;;8.78;84.33
71917;BME280;59793;46.506;6.674;2023-11-21T06:55:00;96840.53;;;9.04;84.22
71917;BME280;59793;46.506;6.674;2023-11-21T06:57:32;96747.53;;;8.49;82.54
71917;BME280;59793;46.506;6.674;2023-11-21T07:00:02;96806.69;;;8.87;82.66
71917;BME280;59793;46.506;6.674;2023-11-21T07:02:32;96856.47;;;9.24;82.65
71917;BME280;59793;46.506;6.674;2023-11-21T07:04:59;96844.91;;;9.13;82.09
71917;BME280;59793;46.506;6.674;2023-11-21T07:07:27;96777.13;;;8.62;82.67
71917;BME280;59793;46.506;6.674;2023-11-21T07:09:56;96847.94;;;9.15;82.55
71917;BME280;59793;46.506;6.674;2023-11-21T07:12:21;96778.75;;;8.67;82.76
71917;BME280;59793;46.506;6.674;2023-11-21T07:14:50;96766.75;;;8.53;83.19
71917;BME280;59793;46.506;6.674;2023-11-21T07:17:15;96792.78;;;8.58;82.87
71917;BME280;59793;46.506;6.674;2023-11-21T07:19:43;96864.59;;;9.19;82.90
71917;BME280;59793;46.506;6.674;2023-11-21T07:22:08;96826.22;;;9.02;82.76
71917;BME280;59793;46.506;6.674;2023-11-21T07:24:34;96846.09;;;9.15;83.23
71917;BME280;59793;46.506;6.674;2023-11-21T07:27:00;96844.16;;;9.12;82.79
71917;BME280;59793;46.506;6.674;2023-11-21T07:29:29;96825.31;;;9.10;82.84
71917;BME280;59793;46.506;6.674;2023-11-21T07:31:55;96839.56;;;9.25;82.63
71917;BME280;59793;46.506;6.674;2023-11-21T07:34:20;96812.50;;;9.08;82.54
71917;BME280;59793;46.506;6.674;2023-11-21T07:36:46;96848.31;;;9.29;82.95
71917;BME280;59793;46.506;6.674;2023-11-21T07:39:12;96814.22;;;9.17;83.00
71917;BME280;59793;46.506;6.674;2023-11-21T07:41:40;96871.41;;;9.36;83.23
71917;BME280;59793;46.506;6.674;2023-11-21T07:44:10;96870.97;;;9.33;83.27
71917;BME280;59793;46.506;6.674;2023-11-21T07:46:35;96852.63;;;9.21;83.57
71917;BME280;59793;46.506;6.674;2023-11-21T07:49:01;96840.78;;;9.27;83.52
71917;BME280;59793;46.506;6.674;2023-11-21T07:51:26;96870.59;;;9.47;81.96
71917;BME280;59793;46.506;6.674;2023-11-21T07:53:53;96869.66;;;9.55;81.40
71917;BME280;59793;46.506;6.674;2023-11-21T07:56:18;96810.47;;;9.18;80.69
71917;BME280;59793;46.506;6.674;2023-11-21T07:58:43;96873.91;;;9.76;79.89
71917;BME280;59793;46.506;6.674;2023-11-21T08:01:10;96843.97;;;9.65;79.62
71917;BME280;59793;46.506;6.674;2023-11-21T08:03:35;96868.66;;;9.92;79.08
71917;BME280;59793;46.506;6.674;2023-11-21T08:06:01;96825.78;;;9.60;80.31
71917;BME280;59793;46.506;6.674;2023-11-21T08:08:28;96868.81;;;9.99;80.12
71917;BME280;59793;46.506;6.674;2023-11-21T08:10:54;96856.00;;;9.97;79.63
71917;BME280;59793;46.506;6.674;2023-11-21T08:13:27;96845.31;;;9.90;79.62
71917;BME280;59793;46.506;6.674;2023-11-21T08:15:57;96862.56;;;10.03;79.94
71917;BME280;59793;46.506;6.674;2023-11-21T08:18:27;96879.75;;;10.17;79.34
71917;BME280;59793;46.506;6.674;2023-11-21T08:20:52;96876.56;;;10.08;79.93
71917;BME280;59793;46.506;6.674;2023-11-21T08:23:20;96868.66;;;9.92;80.09
71917;BME280;59793;46.506;6.674;2023-11-21T08:25:52;96862.44;;;10.00;80.54
71917;BME280;59793;46.506;6.674;2023-11-21T08:28:18;96875.50;;;9.96;79.98
71917;BME280;59793;46.506;6.674;2023-11-21T08:30:47;96849.41;;;9.72;79.17
71917;BME280;59793;46.506;6.674;2023-11-21T08:33:12;96845.91;;;9.68;79.16
71917;BME280;59793;46.506;6.674;2023-11-21T08:35:38;96856.16;;;9.89;79.40
71917;BME280;59793;46.506;6.674;2023-11-21T08:38:04;96866.03;;;10.08;79.13
71917;BME280;59793;46.506;6.674;2023-11-21T08:40:44;96826.63;;;9.95;78.85
71917;BME280;59793;46.506;6.674;2023-11-21T08:43:10;96883.78;;;10.11;78.15
71917;BME280;59793;46.506;6.674;2023-11-21T08:45:37;96809.94;;;9.56;78.83
71917;BME280;59793;46.506;6.674;2023-11-21T08:48:02;96866.78;;;10.08;78.71
71917;BME280;59793;46.506;6.674;2023-11-21T08:50:28;96886.91;;;10.32;78.60
71917;BME280;59793;46.506;6.674;2023-11-21T08:52:54;96862.28;;;10.09;78.81
71917;BME280;59793;46.506;6.674;2023-11-21T08:55:19;96820.53;;;9.91;78.69
71917;BME280;59793;46.506;6.674;2023-11-21T08:57:45;96888.44;;;10.33;78.07
71917;BME280;59793;46.506;6.674;2023-11-21T09:00:14;96869.22;;;10.17;78.89
71917;BME280;59793;46.506;6.674;2023-11-21T09:02:42;96819.94;;;9.82;78.29
71917;BME280;59793;46.506;6.674;2023-11-21T09:05:10;96869.75;;;10.06;79.43
71917;BME280;59793;46.506;6.674;2023-11-21T09:07:38;96851.81;;;9.96;78.81
71917;BME280;59793;46.506;6.674;2023-11-21T09:10:04;96873.56;;;10.09;79.01
71917;BME280;59793;46.506;6.674;2023-11-21T09:12:33;96831.06;;;9.91;78.96
71917;BME280;59793;46.506;6.674;2023-11-21T09:15:00;96884.53;;;10.27;79.04
71917;BME280;59793;46.506;6.674;2023-11-21T09:17:28;96845.38;;;10.25;78.71
71917;BME280;59793;46.506;6.674;2023-11-21T09:19:53;96860.97;;;10.50;78.56
71917;BME280;59793;46.506;6.674;2023-11-21T09:22:18;96880.16;;;10.50;77.14
71917;BME280;59793;46.506;6.674;2023-11-21T09:24:44;96874.22;;;10.38;78.08
71917;BME280;59793;46.506;6.674;2023-11-21T09:27:09;96847.84;;;10.18;76.70
71917;BME280;59793;46.506;6.674;2023-11-21T09:29:35;96868.72;;;10.27;76.75
71917;BME280;59793;46.506;6.674;2023-11-21T09:32:06;96866.25;;;10.34;76.98
71917;BME280;59793;46.506;6.674;2023-11-21T09:34:37;96863.63;;;10.34;77.12
71917;BME280;59793;46.506;6.674;2023-11-21T09:37:07;96830.34;;;10.26;76.56
71917;BME280;59793;46.506;6.674;2023-11-21T09:39:33;96889.88;;;10.66;75.57
71917;BME280;59793;46.506;6.674;2023-11-21T09:42:10;96841.78;;;10.49;75.87
71917;BME280;59793;46.506;6.674;2023-11-21T09:44:43;96861.97;;;10.81;75.02
71917;BME280;59793;46.506;6.674;2023-11-21T09:47:14;96837.09;;;10.78;74.38
71917;BME280;59793;46.506;6.674;2023-11-21T09:49:44;96889.91;;;11.05;73.13
71917;BME280;59793;46.506;6.674;2023-11-21T09:52:26;96883.31;;;10.95;72.58
71917;BME280;59793;46.506;6.674;2023-11-21T09:54:55;96870.94;;;10.95;72.48
71917;BME280;59793;46.506;6.674;2023-11-21T09:57:24;96873.06;;;10.90;72.39
71917;BME280;59793;46.506;6.674;2023-11-21T09:59:55;96861.59;;;10.63;73.54
71917;BME280;59793;46.506;6.674;2023-11-21T10:02:32;96891.31;;;10.79;73.55
71917;BME280;59793;46.506;6.674;2023-11-21T10:05:02;96861.41;;;10.71;74.02
71917;BME280;59793;46.506;6.674;2023-11-21T10:07:30;96841.50;;;10.55;73.99
71917;BME280;59793;46.506;6.674;2023-11-21T10:09:59;96883.53;;;10.86;73.47
71917;BME280;59793;46.506;6.674;2023-11-21T10:12:26;96879.72;;;10.84;73.27
71917;BME280;59793;46.506;6.674;2023-11-21T10:14:52;96875.78;;;10.93;73.27
71917;BME280;59793;46.506;6.674;2023-11-21T10:17:23;96854.13;;;10.84;72.81
71917;BME280;59793;46.506;6.674;2023-11-21T10:19:52;96852.06;;;10.93;72.34
71917;BME280;59793;46.506;6.674;2023-11-21T10:22:19;96850.50;;;11.12;73.25
71917;BME280;59793;46.506;6.674;2023-11-21T10:24:46;96825.81;;;11.00;73.00
71917;BME280;59793;46.506;6.674;2023-11-21T10:27:13;96858.56;;;11.19;72.34
71917;BME280;59793;46.506;6.674;2023-11-21T10:29:39;96839.13;;;11.08;72.22
71917;BME280;59793;46.506;6.674;2023-11-21T10:32:05;96861.06;;;11.31;72.59
71917;BME280;59793;46.506;6.674;2023-11-21T10:34:31;96791.00;;;10.91;72.84
71917;BME280;59793;46.506;6.674;2023-11-21T10:36:58;96871.59;;;11.31;72.29
71917;BME280;59793;46.506;6.674;2023-11-21T10:39:25;96866.50;;;10.99;72.25
71917;BME280;59793;46.506;6.674;2023-11-21T10:41:56;96855.81;;;10.92;72.85
71917;BME280;59793;46.506;6.674;2023-11-21T10:44:22;96868.34;;;11.18;72.36
71917;BME280;59793;46.506;6.674;2023-11-21T10:46:50;96822.50;;;10.84;73.75
71917;BME280;59793;46.506;6.674;2023-11-21T10:49:21;96830.41;;;10.84;72.88
71917;BME280;59793;46.506;6.674;2023-11-21T10:51:48;96779.16;;;10.62;72.49
71917;BME280;59793;46.506;6.674;2023-11-21T10:54:23;96828.22;;;11.09;71.90
71917;BME280;59793;46.506;6.674;2023-11-21T10:57:00;96787.00;;;10.78;71.75
71917;BME280;59793;46.506;6.674;2023-11-21T10:59:39;96873.72;;;11.03;72.20
71917;BME280;59793;46.506;6.674;2023-11-21T11:02:18;96859.69;;;10.79;73.15
71917;BME280;59793;46.506;6.674;2023-11-21T11:04:48;96865.50;;;10.88;72.87
71917;BME280;59793;46.506;6.674;2023-11-21T11:07:15;96872.16;;;11.21;72.64
71917;BME280;59793;46.506;6.674;2023-11-21T11:09:44;96868.22;;;11.54;71.52
71917;BME280;59793;46.506;6.674;2023-11-21T11:12:14;96854.56;;;11.71;70.13
71917;BME280;59793;46.506;6.674;2023-11-21T11:14:42;96847.88;;;11.77;69.82
71917;BME280;59793;46.506;6.674;2023-11-21T11:17:10;96847.19;;;11.80;68.77
71917;BME280;59793;46.506;6.674;2023-11-21T11:19:36;96855.31;;;11.71;68.68
71917;BME280;59793;46.506;6.674;2023-11-21T11:30:00;96854.28;;;12.82;61.04
71917;BME280;59793;46.506;6.674;2023-11-21T11:32:54;96854.34;;;13.57;60.57
71917;BME280;59793;46.506;6.674;2023-11-21T11:37:57;96816.50;;;14.63;56.35
71917;BME280;59793;46.506;6.674;2023-11-21T11:40:45;96843.72;;;14.56;55.26
71917;BME280;59793;46.506;6.674;2023-11-21T11:43:11;96841.63;;;14.98;55.71
71917;BME280;59793;46.506;6.674;2023-11-21T11:45:38;96837.94;;;15.35;51.75
71917;BME280;59793;46.506;6.674;2023-11-21T11:48:08;96834.19;;;16.04;52.68
71917;BME280;59793;46.506;6.674;2023-11-21T11:50:42;96851.69;;;16.01;51.67
71917;BME280;59793;46.506;6.674;2023-11-21T11:53:14;96811.44;;;15.67;51.73
71917;BME280;59793;46.506;6.674;2023-11-21T11:55:42;96809.09;;;15.29;54.52
71917;BME280;59793;46.506;6.674;2023-11-21T11:58:08;96826.50;;;15.02;54.73
71917;BME280;59793;46.506;6.674;2023-11-21T12:00:35;96841.28;;;15.14;54.88
71917;BME280;59793;46.506;6.674;2023-11-21T12:03:07;96815.22;;;15.62;54.31
71917;BME280;59793;46.506;6.674;2023-11-21T12:05:35;96813.72;;;15.75;52.16
71917;BME280;59793;46.506;6.674;2023-11-21T12:08:05;96829.59;;;15.40;52.45
71917;BME280;59793;46.506;6.674;2023-11-21T12:10:33;96854.72;;;14.62;55.35
71917;BME280;59793;46.506;6.674;2023-11-21T12:13:05;96854.75;;;14.07;57.82
71917;BME280;59793;46.506;6.674;2023-11-21T12:15:33;96847.56;;;13.22;61.05
71917;BME280;59793;46.506;6.674;2023-11-21T12:17:59;96841.75;;;13.09;62.37
71917;BME280;59793;46.506;6.674;2023-11-21T12:20:25;96836.22;;;12.58;63.96
71917;BME280;59793;46.506;6.674;2023-11-21T12:23:05;96851.06;;;12.66;65.12
71917;BME280;59793;46.506;6.674;2023-11-21T12:25:31;96848.34;;;12.32;66.41
71917;BME280;59793;46.506;6.674;2023-11-21T12:28:00;96852.97;;;12.39;66.39
71917;BME280;59793;46.506;6.674;2023-11-21T12:30:28;96819.34;;;11.60;68.49
71917;BME280;59793;46.506;6.674;2023-11-21T12:32:56;96819.44;;;11.21;70.21
71917;BME280;59793;46.506;6.674;2023-11-21T12:35:23;96856.59;;;11.35;71.02
71917;BME280;59793;46.506;6.674;2023-11-21T12:37:51;96861.19;;;11.19;71.31
71917;BME280;59793;46.506;6.674;2023-11-21T12:40:17;96855.84;;;11.15;72.46
71917;BME280;59793;46.506;6.674;2023-11-21T12:42:45;96799.50;;;10.62;69.07
71917;BME280;59793;46.506;6.674;2023-11-21T12:50:24;96857.44;;;10.81;72.94
71917;BME280;59793;46.506;6.674;2023-11-21T12:52:59;96824.09;;;10.69;72.82
71917;BME280;59793;46.506;6.674;2023-11-21T12:55:25;96856.78;;;11.04;72.80
71917;BME280;59793;46.506;6.674;2023-11-21T12:57:53;96842.84;;;11.03;72.08
71917;BME280;59793;46.506;6.674;2023-11-21T13:00:30;96869.66;;;11.09;72.58
71917;BME280;59793;46.506;6.674;2023-11-21T13:02:58;96838.03;;;11.09;70.75
71917;BME280;59793;46.506;6.674;2023-11-21T13:05:28;96850.50;;;11.31;71.18
71917;BME280;59793;46.506;6.674;2023-11-21T13:07:56;96867.00;;;11.70;69.54
71917;BME280;59793;46.506;6.674;2023-11-21T13:10:26;96842.31;;;11.82;68.47
71917;BME280;59793;46.506;6.674;2023-11-21T13:12:59;96873.44;;;12.46;68.31
71917;BME280;59793;46.506;6.674;2023-11-21T13:15:26;96877.59;;;12.73;68.83
71917;BME280;59793;46.506;6.674;2023-11-21T13:17:52;96860.59;;;12.44;68.24
71917;BME280;59793;46.506;6.674;2023-11-21T13:20:20;96859.72;;;12.10;68.86
71917;BME280;59793;46.506;6.674;2023-11-21T13:22:56;96870.88;;;12.00;69.13
71917;BME280;59793;46.506;6.674;2023-11-21T13:25:29;96879.19;;;11.79;69.79
71917;BME280;59793;46.506;6.674;2023-11-21T13:27:57;96875.84;;;11.59;69.12
71917;BME280;59793;46.506;6.674;2023-11-21T13:30:24;96874.56;;;11.72;66.87
71917;BME280;59793;46.506;6.674;2023-11-21T13:32:59;96860.97;;;11.70;65.95
71917;BME280;59793;46.506;6.674;2023-11-21T13:35:36;96823.28;;;11.27;67.75
71917;BME280;59793;46.506;6.674;2023-11-21T13:38:28;96865.50;;;11.73;67.14